Blackhawk, Colorado
Current Conditions -  °F | °C
As of 11:50 PM on Saturday 25 Oct 2014 (Local Time) from K0CO Reporting Station
Clear Clear  
Wind Chill: 24°   Ceiling: Unl
Heat Index: 36°   Visibility: 10mi
Dew Point: 32°   Wind: 22mph
Humidity: 87%   Direction: 280°W
Pressure: 30.43"   Gusts: 31mph
Location:  39.8142°N, 105.541°W
Report Text: K0CO 260550Z AUTO 28019G27KT 10SM CLR 02/00 A3043 RMK AO2
Loading
Personal Weather Stations






























Interactive Weather Map
Tropical Storm Tracking
New forecast layout! Learn more

10-Day Weather Forecast

Advertisements
Track Severe Weather on mobile